createdAt,value
2023-01-10T00:00:35.410Z,1.37
2023-01-10T00:03:03.244Z,1.57
2023-01-10T00:05:31.189Z,1.77
2023-01-10T00:07:59.197Z,1.13
2023-01-10T00:10:28.054Z,1.37
2023-01-10T00:13:13.288Z,1.27
2023-01-10T00:15:42.292Z,1.20
2023-01-10T00:18:09.782Z,1.60
2023-01-10T00:20:37.318Z,1.60
2023-01-10T00:23:04.789Z,1.33
2023-01-10T00:26:02.448Z,1.60
2023-01-10T00:28:44.497Z,1.30
2023-01-10T00:31:13.633Z,1.53
2023-01-10T00:33:41.105Z,1.40
2023-01-10T00:36:09.665Z,1.83
2023-01-10T00:38:37.777Z,1.63
2023-01-10T00:41:28.445Z,1.43
2023-01-10T00:43:57.632Z,2.10
2023-01-10T00:46:25.388Z,1.60
2023-01-10T00:48:53.732Z,1.50
2023-01-10T00:51:21.454Z,2.13
2023-01-10T00:53:49.107Z,1.30
2023-01-10T00:56:18.085Z,1.50
2023-01-10T00:58:45.659Z,1.50
2023-01-10T01:01:13.169Z,1.83
2023-01-10T01:03:40.734Z,2.00
2023-01-10T01:06:09.287Z,2.00
2023-01-10T01:08:36.848Z,1.83
2023-01-10T01:11:04.669Z,1.50
2023-01-10T01:13:33.640Z,1.50
2023-01-10T01:16:01.331Z,1.37
2023-01-10T01:18:29.601Z,1.70
2023-01-10T01:21:00.919Z,1.60
2023-01-10T01:23:29.099Z,1.67
2023-01-10T01:25:57.628Z,1.57
2023-01-10T01:28:25.612Z,1.50
2023-01-10T01:30:54.864Z,1.43
2023-01-10T01:33:22.395Z,2.03
2023-01-10T01:35:50.733Z,2.20
2023-01-10T01:38:19.135Z,1.93
2023-01-10T01:40:46.707Z,1.70
2023-01-10T01:43:24.580Z,2.07
2023-01-10T01:45:53.975Z,1.90
2023-01-10T01:48:36.298Z,2.37
2023-01-10T01:51:10.043Z,2.20
2023-01-10T01:53:43.788Z,1.70
2023-01-10T01:56:17.398Z,2.23
2023-01-10T01:58:50.305Z,1.90
2023-01-10T02:01:19.482Z,2.00
2023-01-10T02:03:52.454Z,1.50
2023-01-10T02:06:23.383Z,1.60
2023-01-10T02:08:58.457Z,1.93
2023-01-10T02:11:26.110Z,1.60
2023-01-10T02:13:55.611Z,2.00
2023-01-10T02:16:24.517Z,1.87
2023-01-10T02:18:52.416Z,1.80
2023-01-10T02:21:34.185Z,1.90
2023-01-10T02:24:36.887Z,1.90
2023-01-10T02:27:22.571Z,2.70
2023-01-10T02:30:29.205Z,1.97
2023-01-10T02:33:05.378Z,2.40
2023-01-10T02:35:55.376Z,2.17
2023-01-10T02:38:33.884Z,1.43
2023-01-10T02:41:08.794Z,1.70
2023-01-10T02:43:40.963Z,1.97
2023-01-10T02:46:12.333Z,2.20
2023-01-10T02:48:41.282Z,2.07
2023-01-10T02:51:18.328Z,1.63
2023-01-10T02:53:49.739Z,1.97
2023-01-10T02:56:35.823Z,1.70
2023-01-10T02:59:31.040Z,1.83
2023-01-10T03:02:21.908Z,1.50
2023-01-10T03:04:56.914Z,1.60
2023-01-10T03:07:34.114Z,1.70
2023-01-10T03:10:07.054Z,1.60
2023-01-10T03:12:42.415Z,1.73
2023-01-10T03:15:13.749Z,1.70
2023-01-10T03:17:43.666Z,1.60
2023-01-10T03:20:13.723Z,1.77
2023-01-10T03:22:43.415Z,1.90
2023-01-10T03:25:15.040Z,1.97
2023-01-10T03:27:52.250Z,1.97
2023-01-10T03:30:27.480Z,1.50
2023-01-10T03:32:57.834Z,1.77
2023-01-10T03:35:36.629Z,1.80
2023-01-10T03:38:11.243Z,2.20
2023-01-10T03:40:48.896Z,2.47
2023-01-10T03:43:42.188Z,1.90
2023-01-10T03:46:15.112Z,2.27
2023-01-10T03:48:46.317Z,2.03
2023-01-10T03:51:18.581Z,2.50
2023-01-10T03:53:48.854Z,2.03
2023-01-10T03:56:17.336Z,2.37
2023-01-10T03:58:45.436Z,2.50
2023-01-10T04:01:14.659Z,2.07
2023-01-10T04:03:42.313Z,2.13
2023-01-10T04:06:09.905Z,2.53
2023-01-10T04:08:38.815Z,2.60
2023-01-10T04:11:06.973Z,2.00
2023-01-10T04:13:34.431Z,2.33
2023-01-10T04:16:01.966Z,2.37
2023-01-10T04:18:29.432Z,2.13
2023-01-10T04:20:57.178Z,2.60
2023-01-10T04:23:24.640Z,2.80
2023-01-10T04:25:53.479Z,2.50
2023-01-10T04:28:21.995Z,2.60
2023-01-10T04:30:50.866Z,2.10
2023-01-10T04:33:18.388Z,2.30
2023-01-10T04:35:48.493Z,2.87
2023-01-10T04:38:16.621Z,2.37
2023-01-10T04:40:44.546Z,2.70
2023-01-10T04:43:13.366Z,2.93
2023-01-10T04:45:40.967Z,3.10
2023-01-10T04:48:08.904Z,2.87
2023-01-10T04:50:36.468Z,3.10
2023-01-10T04:53:03.955Z,3.30
2023-01-10T04:55:32.779Z,2.60
2023-01-10T04:58:00.495Z,2.60
2023-01-10T05:00:29.856Z,2.90
2023-01-10T05:02:57.933Z,3.27
2023-01-10T05:05:26.086Z,3.07
2023-01-10T05:07:54.203Z,2.93
2023-01-10T05:10:22.013Z,3.07
2023-01-10T05:12:49.660Z,3.43
2023-01-10T05:15:17.719Z,3.10
2023-01-10T05:17:46.830Z,3.57
2023-01-10T05:20:14.675Z,3.07
2023-01-10T05:22:42.183Z,3.60
2023-01-10T05:25:10.621Z,2.73
2023-01-10T05:27:41.879Z,3.27
2023-01-10T05:30:11.989Z,3.20
2023-01-10T05:32:39.793Z,3.43
2023-01-10T05:35:09.617Z,2.63
2023-01-10T05:37:38.201Z,2.50
2023-01-10T05:40:06.991Z,3.17
2023-01-10T05:42:34.784Z,3.63
2023-01-10T05:45:02.268Z,3.00
2023-01-10T05:47:30.562Z,3.60
2023-01-10T05:49:58.147Z,3.20
2023-01-10T05:52:26.959Z,3.23
2023-01-10T05:54:54.469Z,3.13
2023-01-10T05:57:24.769Z,3.33
2023-01-10T05:59:52.377Z,3.47
2023-01-10T06:02:19.969Z,2.97
2023-01-10T06:04:47.673Z,3.20
2023-01-10T06:07:15.435Z,3.07
2023-01-10T06:09:44.625Z,2.90
2023-01-10T06:12:12.198Z,3.87
2023-01-10T06:14:39.803Z,3.57
2023-01-10T06:17:10.114Z,3.30
2023-01-10T06:19:37.784Z,3.37
2023-01-10T06:22:05.700Z,3.20
2023-01-10T06:24:33.266Z,3.07
2023-01-10T06:27:02.128Z,3.53
2023-01-10T06:29:29.670Z,3.80
2023-01-10T06:31:57.163Z,3.87
2023-01-10T06:34:24.583Z,4.13
2023-01-10T06:36:52.181Z,3.83
2023-01-10T06:39:19.746Z,3.17
2023-01-10T06:41:47.283Z,3.60
2023-01-10T06:44:16.101Z,3.33
2023-01-10T06:46:43.719Z,4.17
2023-01-10T06:49:11.227Z,3.70
2023-01-10T06:51:38.846Z,3.90
2023-01-10T06:54:07.554Z,3.73
2023-01-10T06:56:35.135Z,4.13
2023-01-10T06:59:02.659Z,4.37
2023-01-10T07:01:31.832Z,3.47
2023-01-10T07:03:59.376Z,3.87
2023-01-10T07:06:26.934Z,4.00
2023-01-10T07:08:56.131Z,3.40
2023-01-10T07:11:23.760Z,3.93
2023-01-10T07:13:53.379Z,3.77
2023-01-10T07:16:21.035Z,3.43
2023-01-10T07:18:49.873Z,3.43
2023-01-10T07:21:19.764Z,3.93
2023-01-10T07:23:48.866Z,4.00
2023-01-10T07:26:19.015Z,3.60
2023-01-10T07:28:50.784Z,4.03
2023-01-10T07:31:19.662Z,4.03
2023-01-10T07:33:47.431Z,4.10
2023-01-10T07:36:16.553Z,3.87
2023-01-10T07:38:44.091Z,4.13
2023-01-10T07:41:11.849Z,3.77
2023-01-10T07:43:39.555Z,3.57
2023-01-10T07:46:09.551Z,3.33
2023-01-10T07:48:37.573Z,4.23
2023-01-10T07:51:06.710Z,4.00
2023-01-10T07:53:35.614Z,4.00
2023-01-10T07:56:04.928Z,4.10
2023-01-10T07:58:34.152Z,3.90
2023-01-10T08:01:03.990Z,3.37
2023-01-10T08:03:33.201Z,4.37
2023-01-10T08:06:01.393Z,3.90
2023-01-10T08:08:29.472Z,3.83
2023-01-10T08:10:59.655Z,3.50
2023-01-10T08:13:27.698Z,4.00
2023-01-10T08:15:55.812Z,4.60
2023-01-10T08:18:24.528Z,4.00
2023-01-10T08:20:53.381Z,4.10
2023-01-10T08:23:22.987Z,4.37
2023-01-10T08:25:51.506Z,4.43
2023-01-10T08:28:24.885Z,3.87
2023-01-10T08:30:55.723Z,4.27
2023-01-10T08:33:24.582Z,4.70
2023-01-10T08:35:52.572Z,3.83
2023-01-10T08:38:20.391Z,3.93
2023-01-10T08:40:48.007Z,4.20
2023-01-10T08:43:16.170Z,4.37
2023-01-10T08:45:45.455Z,4.40
2023-01-10T08:48:13.191Z,3.97
2023-01-10T08:50:40.798Z,4.33
2023-01-10T08:53:08.450Z,4.00
2023-01-10T08:55:36.408Z,3.83
2023-01-10T08:58:04.275Z,4.30
2023-01-10T09:00:32.333Z,3.93
2023-01-10T09:03:03.707Z,4.67
2023-01-10T09:05:31.444Z,4.13
2023-01-10T09:08:00.638Z,4.03
2023-01-10T09:10:28.892Z,3.90
2023-01-10T09:13:01.498Z,3.93
2023-01-10T09:15:31.171Z,4.20
2023-01-10T09:18:02.165Z,4.10
2023-01-10T09:20:30.481Z,3.97
2023-01-10T09:23:02.866Z,4.63
2023-01-10T09:25:39.944Z,4.27
2023-01-10T09:28:07.735Z,4.63
2023-01-10T09:30:35.742Z,4.03
2023-01-10T09:33:05.771Z,4.43
2023-01-10T09:35:38.974Z,4.47
2023-01-10T09:38:08.403Z,4.53
2023-01-10T09:40:51.480Z,3.90
2023-01-10T09:43:27.978Z,3.50
2023-01-10T09:46:02.083Z,3.20
2023-01-10T09:48:41.813Z,3.63
2023-01-10T09:51:23.789Z,3.47
2023-01-10T09:54:11.167Z,3.00
2023-01-10T09:56:41.900Z,2.73
2023-01-10T09:59:37.269Z,4.10
2023-01-10T10:02:14.548Z,3.60
2023-01-10T10:04:47.157Z,2.80
2023-01-10T10:07:17.833Z,3.50
2023-01-10T10:09:45.488Z,3.13
2023-01-10T10:12:29.740Z,3.20
2023-01-10T10:15:08.681Z,3.43
2023-01-10T10:17:51.382Z,3.23
2023-01-10T10:20:39.793Z,3.73
2023-01-10T10:23:22.290Z,2.97
2023-01-10T10:30:28.815Z,3.13
2023-01-10T10:33:20.001Z,3.10
2023-01-10T10:35:58.891Z,3.47
2023-01-10T10:38:31.191Z,3.80
2023-01-10T10:41:01.569Z,3.60
2023-01-10T10:43:34.627Z,3.17
2023-01-10T10:46:06.812Z,3.80
2023-01-10T10:48:41.262Z,3.47
2023-01-10T10:53:59.938Z,3.30
2023-01-10T10:56:28.617Z,4.07
2023-01-10T11:00:11.217Z,2.93
2023-01-10T11:02:43.984Z,3.40
2023-01-10T11:05:18.639Z,3.80
2023-01-10T11:07:46.493Z,3.70
2023-01-10T11:10:36.112Z,3.27
2023-01-10T11:13:14.521Z,3.53
2023-01-10T11:15:44.578Z,3.17
2023-01-10T11:18:15.163Z,3.03
2023-01-10T11:20:58.882Z,2.90
2023-01-10T11:23:47.703Z,2.90
2023-01-10T11:26:27.231Z,2.70
2023-01-10T11:29:07.033Z,2.93
2023-01-10T11:31:37.654Z,2.87
2023-01-10T11:34:20.987Z,3.07
2023-01-10T11:37:00.567Z,3.07
2023-01-10T11:39:29.911Z,3.43
2023-01-10T11:42:19.372Z,3.40
2023-01-10T11:44:49.591Z,2.37
2023-01-10T11:47:20.913Z,2.83
2023-01-10T11:49:51.082Z,2.87
2023-01-10T11:52:24.306Z,2.53
2023-01-10T11:54:54.321Z,2.77
2023-01-10T11:57:27.069Z,2.47
2023-01-10T11:59:57.075Z,2.30
2023-01-10T12:02:27.043Z,2.47
2023-01-10T12:04:57.937Z,2.63
2023-01-10T12:07:25.910Z,2.23
2023-01-10T12:09:57.477Z,1.90
2023-01-10T12:12:27.750Z,2.40
2023-01-10T12:14:57.124Z,2.60
2023-01-10T12:17:29.788Z,3.30
2023-01-10T12:20:00.480Z,2.20
2023-01-10T12:22:32.736Z,2.30
2023-01-10T12:25:01.893Z,2.70
2023-01-10T12:27:31.781Z,3.07
2023-01-10T12:30:08.157Z,2.40
2023-01-10T12:32:44.045Z,2.20
2023-01-10T12:35:18.211Z,2.67
2023-01-10T12:37:49.492Z,2.73
2023-01-10T12:40:29.593Z,2.00
2023-01-10T12:43:25.810Z,2.30
2023-01-10T12:45:59.630Z,2.03
2023-01-10T12:48:35.133Z,2.07
2023-01-10T12:51:06.721Z,1.57
2023-01-10T12:53:41.436Z,1.90
2023-01-10T12:56:17.143Z,2.03
2023-01-10T12:58:50.687Z,2.10
2023-01-10T13:01:20.967Z,2.23
2023-01-10T13:03:55.347Z,1.60
2023-01-10T13:06:28.296Z,1.93
2023-01-10T13:08:58.067Z,1.87
2023-01-10T13:11:34.302Z,2.30
2023-01-10T13:14:06.876Z,1.80
2023-01-10T13:16:43.382Z,1.57
2023-01-10T13:19:25.552Z,1.83
2023-01-10T13:22:43.519Z,1.73
2023-01-10T13:25:21.151Z,2.03
2023-01-10T13:27:56.615Z,1.90
2023-01-10T13:30:30.461Z,1.80
2023-01-10T13:33:04.246Z,1.67
2023-01-10T13:35:40.631Z,1.43
2023-01-10T13:38:18.707Z,2.07
2023-01-10T13:41:01.810Z,1.33
2023-01-10T13:43:50.003Z,1.27
2023-01-10T13:46:44.729Z,1.73
2023-01-10T13:49:45.726Z,1.80
2023-01-10T13:52:37.217Z,1.83
2023-01-10T13:55:27.680Z,1.80
2023-01-10T13:58:48.312Z,1.30
2023-01-10T14:01:47.146Z,1.67
2023-01-10T14:07:48.074Z,1.87
2023-01-10T14:10:27.770Z,1.77
2023-01-10T14:12:58.187Z,1.87
2023-01-10T14:15:28.555Z,1.80
2023-01-10T14:17:59.880Z,1.63
2023-01-10T14:20:40.994Z,1.87
2023-01-10T14:23:21.429Z,1.90
2023-01-10T14:25:55.033Z,2.27
2023-01-10T14:28:30.260Z,2.00
2023-01-10T14:31:04.117Z,1.90
2023-01-10T14:33:32.964Z,1.53
2023-01-10T14:36:05.578Z,1.70
2023-01-10T14:41:51.204Z,1.43
2023-01-10T14:44:27.608Z,2.00
2023-01-10T14:46:57.342Z,1.77
2023-01-10T14:49:27.552Z,2.47
2023-01-10T14:52:19.359Z,1.40
2023-01-10T14:54:47.340Z,3.00
2023-01-10T14:57:20.244Z,1.57
2023-01-10T14:59:48.474Z,2.07
2023-01-10T15:02:22.475Z,1.80
2023-01-10T15:04:55.343Z,2.77
2023-01-10T15:07:25.622Z,1.73
2023-01-10T15:09:56.478Z,2.00
2023-01-10T15:12:27.471Z,2.03
2023-01-10T15:15:01.504Z,2.43
2023-01-10T15:17:29.460Z,2.33
2023-01-10T15:19:57.643Z,1.57
2023-01-10T15:22:30.841Z,2.00
2023-01-10T15:25:00.861Z,2.03
2023-01-10T15:27:29.224Z,2.63
2023-01-10T15:29:58.095Z,1.77
2023-01-10T15:32:30.047Z,2.03
2023-01-10T15:34:59.554Z,2.43
2023-01-10T15:37:35.144Z,2.10
2023-01-10T15:40:04.038Z,2.10
2023-01-10T15:42:32.262Z,2.17
2023-01-10T15:45:18.962Z,1.77
2023-01-10T15:47:55.111Z,1.93
2023-01-10T15:50:28.417Z,2.20
2023-01-10T15:53:00.687Z,2.73
2023-01-10T15:55:40.393Z,2.83
2023-01-10T15:58:19.035Z,2.20
2023-01-10T16:00:48.684Z,2.70
2023-01-10T16:03:35.904Z,2.27
2023-01-10T16:07:21.821Z,2.57
2023-01-10T16:11:13.258Z,2.23
2023-01-10T16:14:28.625Z,2.67
2023-01-10T16:20:55.465Z,2.67
2023-01-10T16:27:35.688Z,2.20
2023-01-10T16:30:43.415Z,2.23
2023-01-10T16:33:48.566Z,2.23
2023-01-10T16:40:09.101Z,2.07
2023-01-10T16:42:55.306Z,2.70
2023-01-10T16:45:31.463Z,2.20
2023-01-10T16:48:02.673Z,2.53
2023-01-10T16:56:43.134Z,2.67
2023-01-10T16:59:18.879Z,2.33
2023-01-10T17:01:51.146Z,2.27
2023-01-10T17:04:21.834Z,2.10
2023-01-10T17:06:49.673Z,1.83
2023-01-10T17:09:23.294Z,1.50
2023-01-10T17:11:56.692Z,2.07
2023-01-10T17:14:24.443Z,2.70
2023-01-10T17:16:53.291Z,2.10
2023-01-10T17:19:21.324Z,1.50
2023-01-10T17:21:48.789Z,2.60
2023-01-10T17:24:16.991Z,2.77
2023-01-10T17:26:44.458Z,1.97
2023-01-10T17:29:11.942Z,2.43
2023-01-10T17:31:39.428Z,2.20
2023-01-10T17:34:08.395Z,2.33
2023-01-10T17:36:38.775Z,2.30
2023-01-10T17:39:08.185Z,2.13
2023-01-10T17:41:36.573Z,2.30
2023-01-10T17:44:04.148Z,2.20
2023-01-10T17:46:31.621Z,2.90
2023-01-10T17:48:59.131Z,2.50
2023-01-10T17:51:28.936Z,2.80
2023-01-10T17:53:56.954Z,2.23
2023-01-10T17:56:24.670Z,2.37
2023-01-10T17:58:53.110Z,2.60
2023-01-10T18:01:25.046Z,2.37
2023-01-10T18:03:53.706Z,2.43
2023-01-10T18:06:25.579Z,2.63
2023-01-10T18:08:54.840Z,2.43
2023-01-10T18:11:22.822Z,1.80
2023-01-10T18:13:50.343Z,2.40
2023-01-10T18:16:17.839Z,2.63
2023-01-10T18:18:45.318Z,2.23
2023-01-10T18:21:14.168Z,2.93
2023-01-10T18:23:41.749Z,2.40
2023-01-10T18:26:12.325Z,2.20
2023-01-10T18:28:42.566Z,2.80
2023-01-10T18:31:13.329Z,2.47
2023-01-10T18:33:42.863Z,1.93
2023-01-10T18:36:15.223Z,2.97
2023-01-10T18:38:42.844Z,2.33
2023-01-10T18:41:11.870Z,2.50
2023-01-10T18:43:40.141Z,2.73
2023-01-10T18:46:10.598Z,2.60
2023-01-10T18:48:38.389Z,2.67
2023-01-10T18:51:06.396Z,2.70
2023-01-10T18:53:33.968Z,2.33
2023-01-10T18:56:04.312Z,2.57
2023-01-10T18:58:34.866Z,2.50
2023-01-10T19:01:06.606Z,2.73
2023-01-10T19:03:34.795Z,3.40
2023-01-10T19:06:02.649Z,2.93
2023-01-10T19:08:30.156Z,2.73
2023-01-10T19:11:12.434Z,2.70
2023-01-10T19:13:42.760Z,2.90
2023-01-10T19:16:12.328Z,3.03
2023-01-10T19:18:40.054Z,2.30
2023-01-10T19:21:13.252Z,2.63
2023-01-10T19:23:40.862Z,2.80
2023-01-10T19:26:08.386Z,2.23
2023-01-10T19:28:35.881Z,1.67
2023-01-10T19:31:05.502Z,1.87
2023-01-10T19:33:34.251Z,2.97
2023-01-10T19:36:05.722Z,2.70
2023-01-10T19:38:33.382Z,3.00
2023-01-10T19:41:00.846Z,2.13
2023-01-10T19:43:28.323Z,2.33
2023-01-10T19:45:55.827Z,2.87
2023-01-10T19:48:25.162Z,2.53
2023-01-10T19:50:52.747Z,1.93
2023-01-10T19:53:23.870Z,2.97
2023-01-10T19:56:01.845Z,2.63
2023-01-10T19:58:29.655Z,2.07
2023-01-10T20:00:57.191Z,2.57
2023-01-10T20:03:26.095Z,2.77
2023-01-10T20:05:53.571Z,2.13
2023-01-10T20:08:23.263Z,2.07
2023-01-10T20:10:50.734Z,1.97
2023-01-10T20:13:18.226Z,1.60
2023-01-10T20:15:45.744Z,2.60
2023-01-10T20:18:13.261Z,2.07
2023-01-10T20:20:42.089Z,1.87
2023-01-10T20:23:11.674Z,1.80
2023-01-10T20:25:39.216Z,1.83
2023-01-10T20:28:06.720Z,1.73
2023-01-10T20:30:34.174Z,2.10
2023-01-10T20:33:01.645Z,1.90
2023-01-10T20:35:29.189Z,1.03
2023-01-10T20:37:57.936Z,1.97
2023-01-10T20:40:26.290Z,2.27
2023-01-10T20:42:53.753Z,2.47
2023-01-10T20:45:21.624Z,1.70
2023-01-10T20:47:51.292Z,2.40
2023-01-10T20:50:19.362Z,1.67
2023-01-10T20:52:46.938Z,2.00
2023-01-10T20:55:19.753Z,1.90
2023-01-10T20:57:48.670Z,2.23
2023-01-10T21:00:17.924Z,1.50
2023-01-10T21:02:45.482Z,1.33
2023-01-10T21:05:12.999Z,1.80
2023-01-10T21:07:40.467Z,1.90
2023-01-10T21:10:09.211Z,2.07
2023-01-10T21:12:38.207Z,1.93
2023-01-10T21:15:06.749Z,1.30
2023-01-10T21:17:34.328Z,1.77
2023-01-10T21:20:01.926Z,2.00
2023-01-10T21:22:29.430Z,1.87
2023-01-10T21:24:57.123Z,1.70
2023-01-10T21:27:30.354Z,1.97
2023-01-10T21:30:00.609Z,1.90
2023-01-10T21:32:28.676Z,2.17
2023-01-10T21:34:56.129Z,2.50
2023-01-10T21:37:24.004Z,2.07
2023-01-10T21:39:51.774Z,1.50
2023-01-10T21:42:42.736Z,2.57
2023-01-10T21:45:12.073Z,2.27
2023-01-10T21:47:40.290Z,2.23
2023-01-10T21:50:11.234Z,1.97
2023-01-10T21:52:39.062Z,2.17
2023-01-10T21:55:08.889Z,1.50
2023-01-10T21:57:39.355Z,2.17
2023-01-10T22:00:08.288Z,1.30
2023-01-10T22:02:43.478Z,2.10
2023-01-10T22:05:11.997Z,1.30
2023-01-10T22:07:39.508Z,2.13
2023-01-10T22:10:09.901Z,1.80
2023-01-10T22:12:37.905Z,1.37
2023-01-10T22:15:06.288Z,1.50
2023-01-10T22:17:33.783Z,1.40
2023-01-10T22:20:02.613Z,1.87
2023-01-10T22:22:30.113Z,1.70
2023-01-10T22:24:57.544Z,1.87
2023-01-10T22:27:25.111Z,2.77
2023-01-10T22:29:52.637Z,1.40
2023-01-10T22:32:20.072Z,1.67
2023-01-10T22:34:47.683Z,1.53
2023-01-10T22:37:16.996Z,1.67
2023-01-10T22:39:45.348Z,2.57
2023-01-10T22:42:13.623Z,1.73
2023-01-10T22:44:41.081Z,1.33
2023-01-10T22:47:10.113Z,2.40
2023-01-10T22:49:37.796Z,1.33
2023-01-10T22:52:08.326Z,1.60
2023-01-10T22:54:37.078Z,1.47
2023-01-10T22:57:04.646Z,1.27
2023-01-10T22:59:34.705Z,0.83
2023-01-10T23:02:02.485Z,1.53
2023-01-10T23:04:30.116Z,1.23
2023-01-10T23:06:59.489Z,2.40
2023-01-10T23:09:27.024Z,1.80
2023-01-10T23:11:55.789Z,0.67
2023-01-10T23:14:23.209Z,1.57
2023-01-10T23:16:50.785Z,1.03
2023-01-10T23:19:18.401Z,2.73
2023-01-10T23:21:51.573Z,3.00
2023-01-10T23:24:19.424Z,1.87
2023-01-10T23:26:46.883Z,1.30
2023-01-10T23:29:15.687Z,0.77
2023-01-10T23:31:43.202Z,1.50
2023-01-10T23:34:11.739Z,0.63
2023-01-10T23:36:39.438Z,1.10
2023-01-10T23:39:06.889Z,0.97
2023-01-10T23:41:34.354Z,1.40
2023-01-10T23:44:01.864Z,0.80
2023-01-10T23:46:30.632Z,1.30
2023-01-10T23:48:58.158Z,1.10
2023-01-10T23:51:26.227Z,1.63
2023-01-10T23:53:53.930Z,1.43
2023-01-10T23:56:21.495Z,2.73
2023-01-10T23:58:52.422Z,1.43
